createdAt,value
2019-04-29T00:01:23.193Z,3.43
2019-04-29T00:04:31.952Z,3.83
2019-04-29T00:07:40.699Z,3.67
2019-04-29T00:10:49.653Z,4.20
2019-04-29T00:13:58.573Z,4.17
2019-04-29T00:17:14.100Z,3.93
2019-04-29T00:20:29.435Z,4.13
2019-04-29T00:23:37.965Z,3.77
2019-04-29T00:26:46.554Z,3.33
2019-04-29T00:29:55.200Z,4.80
2019-04-29T00:33:03.978Z,3.93
2019-04-29T00:36:12.679Z,4.07
2019-04-29T00:39:39.480Z,4.20
2019-04-29T00:43:03.872Z,4.37
2019-04-29T00:46:12.999Z,4.40
2019-04-29T00:49:22.708Z,4.33
2019-04-29T00:52:41.583Z,4.17
2019-04-29T00:55:52.082Z,3.87
2019-04-29T00:59:00.605Z,4.00
2019-04-29T01:02:10.051Z,4.00
2019-04-29T01:05:29.158Z,4.30
2019-04-29T01:08:37.904Z,4.23
2019-04-29T01:11:46.528Z,3.93
2019-04-29T01:14:55.146Z,3.97
2019-04-29T01:18:03.865Z,4.50
2019-04-29T01:21:12.530Z,3.90
2019-04-29T01:24:21.052Z,4.30
2019-04-29T01:27:34.782Z,3.63
2019-04-29T01:31:02.341Z,3.83
2019-04-29T01:34:28.630Z,4.42
2019-04-29T01:37:42.571Z,3.93
2019-04-29T01:41:08.108Z,3.80
2019-04-29T01:44:17.345Z,3.83
2019-04-29T01:47:38.531Z,3.92
2019-04-29T01:50:48.975Z,4.03
2019-04-29T01:53:57.584Z,4.07
2019-04-29T01:57:07.259Z,4.47
2019-04-29T02:00:16.553Z,5.37
2019-04-29T02:03:25.084Z,6.00
2019-04-29T02:06:34.022Z,6.73
2019-04-29T02:09:57.043Z,6.30
2019-04-29T02:13:06.380Z,7.83
2019-04-29T02:16:16.252Z,8.30
2019-04-29T02:19:26.317Z,9.20
2019-04-29T02:23:02.894Z,9.20
2019-04-29T02:26:11.501Z,10.13
2019-04-29T02:29:20.126Z,9.70
2019-04-29T02:32:28.778Z,10.13
2019-04-29T02:35:37.523Z,10.60
2019-04-29T02:38:53.574Z,10.73
2019-04-29T02:42:45.445Z,12.27
2019-04-29T02:45:55.227Z,12.00
2019-04-29T02:49:14.171Z,11.73
2019-04-29T02:52:22.803Z,11.57
2019-04-29T02:55:35.977Z,12.27
2019-04-29T02:58:50.682Z,11.53
2019-04-29T03:02:31.153Z,12.07
2019-04-29T03:05:44.121Z,12.30
2019-04-29T03:08:52.712Z,11.77
2019-04-29T03:12:11.803Z,11.77
2019-04-29T03:15:34.644Z,11.30
2019-04-29T03:18:47.931Z,10.37
2019-04-29T03:21:57.341Z,10.77
2019-04-29T03:25:06.853Z,10.83
2019-04-29T03:28:25.634Z,10.97
2019-04-29T03:31:39.106Z,10.50
2019-04-29T03:34:44.648Z,9.90
2019-04-29T03:37:53.348Z,9.77
2019-04-29T03:41:01.919Z,9.43
2019-04-29T03:44:10.551Z,8.93
2019-04-29T03:47:19.350Z,9.63
2019-04-29T03:50:28.242Z,10.00
2019-04-29T03:53:36.803Z,9.90
2019-04-29T03:56:46.087Z,10.90
2019-04-29T03:59:57.075Z,10.67
2019-04-29T04:03:11.978Z,10.07
2019-04-29T04:06:26.038Z,11.53
2019-04-29T04:09:52.888Z,10.90
2019-04-29T04:13:01.650Z,10.97
2019-04-29T04:16:13.323Z,12.87
2019-04-29T04:19:22.829Z,10.67
2019-04-29T04:22:48.157Z,12.50
2019-04-29T04:25:56.806Z,13.10
2019-04-29T04:29:05.407Z,12.70
2019-04-29T04:32:14.018Z,12.00
2019-04-29T04:35:22.651Z,12.10
2019-04-29T04:38:31.295Z,12.60
2019-04-29T04:41:39.968Z,12.80
2019-04-29T04:44:58.798Z,13.30
2019-04-29T04:48:07.567Z,11.93
2019-04-29T04:51:16.427Z,14.20
2019-04-29T04:54:25.034Z,12.60
2019-04-29T04:57:33.695Z,13.13
2019-04-29T05:00:44.124Z,14.13
2019-04-29T05:03:52.787Z,13.20
2019-04-29T05:07:01.571Z,13.40
2019-04-29T05:10:10.269Z,13.97
2019-04-29T05:13:27.989Z,14.83
2019-04-29T05:16:29.871Z,13.93
2019-04-29T05:19:38.436Z,14.47
2019-04-29T05:23:02.404Z,13.93
2019-04-29T05:26:21.656Z,13.93
2019-04-29T05:29:30.271Z,13.57
2019-04-29T05:32:41.669Z,14.63
2019-04-29T05:36:09.101Z,14.43
2019-04-29T05:39:42.436Z,14.20
2019-04-29T05:43:05.128Z,16.40
2019-04-29T05:46:32.347Z,15.23
2019-04-29T05:49:58.711Z,15.77
2019-04-29T05:53:20.559Z,14.33
2019-04-29T05:56:29.177Z,15.17
2019-04-29T05:59:37.877Z,16.13
2019-04-29T06:02:46.495Z,16.07
2019-04-29T06:05:55.128Z,15.87
2019-04-29T06:09:11.777Z,14.73
2019-04-29T06:12:19.203Z,16.27
2019-04-29T06:15:27.831Z,17.33
2019-04-29T06:18:36.379Z,16.50
2019-04-29T06:21:55.219Z,17.10
2019-04-29T06:25:02.376Z,17.13
2019-04-29T06:28:11.053Z,17.63
2019-04-29T06:31:19.911Z,18.07
2019-04-29T06:34:28.637Z,18.17
2019-04-29T06:37:37.295Z,18.10
2019-04-29T06:40:45.955Z,17.40
2019-04-29T06:43:56.155Z,17.30
2019-04-29T06:47:04.895Z,19.57
2019-04-29T06:50:13.697Z,18.33
2019-04-29T06:53:23.478Z,20.03
2019-04-29T06:56:42.546Z,20.00
2019-04-29T06:59:51.123Z,20.67
2019-04-29T07:02:59.639Z,19.33
2019-04-29T07:06:08.421Z,19.63
2019-04-29T07:09:17.053Z,19.33
2019-04-29T07:12:27.488Z,18.70
2019-04-29T07:15:36.061Z,18.60
2019-04-29T07:18:49.360Z,19.40
2019-04-29T07:21:56.579Z,19.80
2019-04-29T07:25:17.345Z,16.63
2019-04-29T07:28:38.406Z,20.17
2019-04-29T07:31:47.147Z,19.60
2019-04-29T07:34:55.735Z,17.17
2019-04-29T07:38:08.211Z,17.77
2019-04-29T07:41:18.964Z,18.83
2019-04-29T07:44:42.788Z,17.07
2019-04-29T07:47:40.402Z,16.67
2019-04-29T07:50:49.098Z,17.30
2019-04-29T07:53:57.849Z,16.40
2019-04-29T07:57:06.533Z,16.17
2019-04-29T08:00:15.843Z,15.57
2019-04-29T08:03:24.512Z,16.03
2019-04-29T08:06:38.027Z,15.07
2019-04-29T08:09:45.378Z,14.67
2019-04-29T08:12:55.011Z,13.97
2019-04-29T08:16:03.661Z,12.70
2019-04-29T08:19:12.316Z,12.33
2019-04-29T08:22:22.981Z,12.63
2019-04-29T08:25:31.461Z,12.90
2019-04-29T08:28:52.897Z,11.10
2019-04-29T08:32:02.495Z,11.80
2019-04-29T08:35:21.679Z,11.23
2019-04-29T08:38:30.435Z,12.00
2019-04-29T08:41:39.082Z,11.20
2019-04-29T08:45:15.473Z,10.70
2019-04-29T08:48:24.128Z,11.73
2019-04-29T08:51:32.673Z,10.77
2019-04-29T08:54:41.268Z,10.87
2019-04-29T08:57:49.876Z,11.17
2019-04-29T09:00:58.643Z,9.63
2019-04-29T09:04:07.315Z,10.97
2019-04-29T09:07:17.465Z,10.33
2019-04-29T09:10:26.452Z,10.00
2019-04-29T09:13:35.047Z,9.93
2019-04-29T09:16:53.911Z,10.93
2019-04-29T09:20:02.542Z,10.67
2019-04-29T09:23:13.440Z,10.90
2019-04-29T09:26:44.782Z,11.00
2019-04-29T09:30:13.263Z,10.43
2019-04-29T09:33:23.413Z,10.60
2019-04-29T09:36:48.413Z,10.70
2019-04-29T09:39:57.472Z,10.37
2019-04-29T09:43:45.793Z,9.73
2019-04-29T09:46:54.403Z,9.13
2019-04-29T09:50:03.015Z,9.50
2019-04-29T09:53:11.861Z,9.53
2019-04-29T09:56:20.842Z,9.33
2019-04-29T09:59:41.755Z,9.70
2019-04-29T10:02:59.021Z,10.43
2019-04-29T10:06:13.491Z,10.47
2019-04-29T10:09:22.625Z,9.97
2019-04-29T10:12:41.906Z,9.93
2019-04-29T10:16:07.039Z,11.00
2019-04-29T10:19:34.643Z,10.80
2019-04-29T10:22:43.378Z,13.40
2019-04-29T10:25:50.564Z,11.83
2019-04-29T10:29:05.975Z,12.53
2019-04-29T10:32:14.687Z,13.53
2019-04-29T10:35:23.333Z,12.67
2019-04-29T10:38:32.032Z,12.70
2019-04-29T10:41:43.558Z,12.70
2019-04-29T10:45:14.093Z,12.60
2019-04-29T10:48:50.121Z,13.70
2019-04-29T10:52:02.900Z,13.70
2019-04-29T10:55:10.301Z,14.43
2019-04-29T10:58:21.924Z,14.13
2019-04-29T11:02:35.842Z,14.50
2019-04-29T11:06:00.475Z,15.43
2019-04-29T11:09:18.569Z,16.13
2019-04-29T11:12:27.495Z,15.80
2019-04-29T11:15:37.473Z,16.47
2019-04-29T11:18:46.246Z,15.70
2019-04-29T11:21:55.480Z,15.97
2019-04-29T11:25:29.636Z,16.40
2019-04-29T11:28:39.843Z,16.30
2019-04-29T11:31:54.082Z,15.53
2019-04-29T11:35:08.776Z,17.83
2019-04-29T11:38:18.455Z,16.53
2019-04-29T11:41:38.082Z,15.87
2019-04-29T11:45:01.740Z,18.17
2019-04-29T11:48:18.055Z,16.57
2019-04-29T11:52:07.658Z,16.03
2019-04-29T11:54:55.356Z,15.73
2019-04-29T11:58:09.962Z,16.37
2019-04-29T12:01:51.187Z,17.60
2019-04-29T12:05:04.238Z,17.63
2019-04-29T12:08:17.138Z,16.77
2019-04-29T12:11:36.284Z,18.07
2019-04-29T12:14:59.950Z,17.30
2019-04-29T12:18:12.680Z,18.53
2019-04-29T12:21:25.839Z,17.13
2019-04-29T12:24:47.279Z,17.20
2019-04-29T12:28:01.542Z,16.87
2019-04-29T12:31:14.188Z,17.77
2019-04-29T12:34:40.651Z,16.40
2019-04-29T12:38:39.353Z,17.37
2019-04-29T12:42:08.086Z,16.87
2019-04-29T12:45:38.654Z,16.57
2019-04-29T12:48:48.289Z,16.63
2019-04-29T12:51:57.037Z,15.53
2019-04-29T12:55:19.788Z,14.97
2019-04-29T12:58:19.224Z,16.27
2019-04-29T13:01:51.353Z,17.20
2019-04-29T13:05:35.895Z,16.13
2019-04-29T13:08:57.059Z,15.73
2019-04-29T13:12:19.043Z,16.90
2019-04-29T13:15:36.363Z,15.90
2019-04-29T13:19:31.469Z,16.40
2019-04-29T13:22:40.169Z,15.53
2019-04-29T13:25:51.072Z,15.00
2019-04-29T13:29:25.999Z,16.33
2019-04-29T13:32:21.073Z,16.13
2019-04-29T13:35:29.669Z,16.37
2019-04-29T13:38:38.381Z,14.77
2019-04-29T13:41:57.023Z,16.10
2019-04-29T13:45:07.900Z,15.33
2019-04-29T13:48:53.904Z,14.13
2019-04-29T13:52:04.910Z,14.13
2019-04-29T13:55:47.126Z,14.90
2019-04-29T13:58:35.255Z,13.67
2019-04-29T14:02:06.813Z,13.53
2019-04-29T14:05:13.716Z,14.30
2019-04-29T14:08:24.087Z,13.40
2019-04-29T14:11:32.695Z,12.27
2019-04-29T14:14:41.505Z,10.43
2019-04-29T14:17:50.131Z,9.60
2019-04-29T14:20:58.992Z,10.23
2019-04-29T14:24:07.740Z,9.80
2019-04-29T14:27:24.747Z,8.97
2019-04-29T14:30:38.376Z,10.73
2019-04-29T14:34:06.091Z,9.37
2019-04-29T14:37:23.266Z,11.13
2019-04-29T14:40:25.014Z,9.60
2019-04-29T14:43:58.649Z,10.37
2019-04-29T14:47:29.261Z,10.33
2019-04-29T14:50:38.090Z,9.47
2019-04-29T14:53:56.109Z,9.60
2019-04-29T14:56:57.177Z,9.33
2019-04-29T15:00:09.921Z,8.53
2019-04-29T15:03:19.078Z,8.37
2019-04-29T15:06:28.992Z,8.57
2019-04-29T15:09:55.801Z,8.50
2019-04-29T15:13:21.405Z,9.03
2019-04-29T15:16:34.930Z,9.47
2019-04-29T15:19:49.399Z,8.10
2019-04-29T15:22:55.821Z,8.03
2019-04-29T15:26:04.412Z,9.13
2019-04-29T15:29:13.259Z,7.90
2019-04-29T15:32:23.808Z,8.87
2019-04-29T15:35:32.664Z,8.03
2019-04-29T15:38:41.382Z,7.17
2019-04-29T15:41:50.284Z,7.43
2019-04-29T15:44:59.202Z,8.80
2019-04-29T15:48:08.072Z,7.90
2019-04-29T15:51:18.757Z,8.17
2019-04-29T15:54:32.327Z,8.77
2019-04-29T15:57:41.469Z,8.47
2019-04-29T16:00:51.803Z,9.17
2019-04-29T16:04:02.481Z,8.60
2019-04-29T16:07:46.562Z,8.20
2019-04-29T16:11:14.061Z,9.13
2019-04-29T16:14:24.285Z,9.33
2019-04-29T16:17:37.833Z,7.80
2019-04-29T16:20:43.320Z,7.93
2019-04-29T16:23:57.443Z,7.93
2019-04-29T16:27:08.646Z,7.40
2019-04-29T16:30:18.606Z,6.87
2019-04-29T16:33:23.366Z,6.77
2019-04-29T16:36:32.019Z,6.33
2019-04-29T16:39:40.744Z,7.13
2019-04-29T16:43:07.395Z,6.57
2019-04-29T16:46:23.438Z,5.97
2019-04-29T16:49:32.556Z,5.93
2019-04-29T16:52:44.528Z,5.60
2019-04-29T16:55:53.277Z,5.37
2019-04-29T16:59:09.155Z,4.83
2019-04-29T17:02:22.668Z,5.03
2019-04-29T17:06:01.731Z,5.00
2019-04-29T17:09:45.511Z,5.50
2019-04-29T17:12:54.318Z,5.93
2019-04-29T17:16:04.651Z,5.87
2019-04-29T17:19:13.585Z,5.30
2019-04-29T17:22:25.897Z,4.63
2019-04-29T17:25:34.120Z,4.47
2019-04-29T17:28:49.207Z,3.87
2019-04-29T17:32:47.870Z,3.63
2019-04-29T17:35:55.801Z,4.00
2019-04-29T17:39:06.739Z,3.67
2019-04-29T17:42:15.322Z,2.97
2019-04-29T17:45:32.560Z,3.10
2019-04-29T17:48:48.663Z,3.07
2019-04-29T17:52:03.075Z,3.47
2019-04-29T17:55:37.192Z,3.40
2019-04-29T17:58:43.925Z,3.00
2019-04-29T18:02:39.582Z,3.83
2019-04-29T18:06:02.827Z,3.50
2019-04-29T18:09:30.607Z,3.00
2019-04-29T18:12:41.270Z,2.83
2019-04-29T18:16:00.538Z,3.43
2019-04-29T18:19:05.810Z,3.30
2019-04-29T18:22:39.936Z,2.70
2019-04-29T18:25:59.018Z,2.93
2019-04-29T18:29:08.098Z,3.10
2019-04-29T18:32:17.019Z,3.13
2019-04-29T18:35:25.695Z,3.00
2019-04-29T18:38:48.687Z,3.40
2019-04-29T18:41:58.621Z,2.97
2019-04-29T18:45:05.775Z,2.97
2019-04-29T18:48:26.898Z,2.90
2019-04-29T18:51:34.753Z,3.00
2019-04-29T18:54:44.994Z,3.00
2019-04-29T18:58:05.682Z,2.77
2019-04-29T19:01:14.233Z,2.70
2019-04-29T19:04:37.657Z,3.03
2019-04-29T19:07:55.175Z,2.70
2019-04-29T19:10:58.199Z,3.20
2019-04-29T19:14:06.825Z,2.90
2019-04-29T19:17:16.206Z,2.70
2019-04-29T19:20:25.083Z,2.73
2019-04-29T19:23:45.771Z,3.30
2019-04-29T19:27:02.262Z,2.87
2019-04-29T19:30:06.271Z,2.80
2019-04-29T19:33:15.179Z,2.53
2019-04-29T19:36:24.040Z,2.67
2019-04-29T19:39:31.641Z,3.13
2019-04-29T19:42:41.022Z,2.40
2019-04-29T19:45:50.505Z,2.83
2019-04-29T19:49:07.594Z,3.03
2019-04-29T19:52:09.509Z,2.63
2019-04-29T19:55:18.172Z,2.80
2019-04-29T19:58:31.234Z,3.33
2019-04-29T20:01:38.302Z,2.90
2019-04-29T20:05:00.024Z,2.87
2019-04-29T20:08:08.661Z,2.53
2019-04-29T20:11:18.861Z,2.80
2019-04-29T20:14:33.218Z,2.70
2019-04-29T20:17:56.897Z,2.87
2019-04-29T20:21:29.320Z,3.53
2019-04-29T20:24:38.466Z,3.50
2019-04-29T20:27:47.376Z,2.70
2019-04-29T20:31:14.834Z,2.50
2019-04-29T20:34:06.174Z,2.77
2019-04-29T20:37:26.127Z,3.23
2019-04-29T20:40:39.959Z,2.97
2019-04-29T20:43:46.268Z,3.00
2019-04-29T20:47:19.677Z,3.13
2019-04-29T20:50:16.431Z,3.30
2019-04-29T20:53:45.906Z,3.10
2019-04-29T20:57:17.453Z,2.80
2019-04-29T21:00:34.760Z,3.07
2019-04-29T21:04:50.844Z,3.33
2019-04-29T21:08:03.476Z,2.90
2019-04-29T21:11:22.195Z,3.60
2019-04-29T21:14:51.155Z,3.00
2019-04-29T21:18:02.042Z,2.87
2019-04-29T21:21:15.527Z,3.10
2019-04-29T21:24:31.168Z,3.50
2019-04-29T21:28:02.158Z,3.80
2019-04-29T21:31:15.636Z,3.80
2019-04-29T21:34:25.539Z,3.77
2019-04-29T21:38:22.262Z,3.73
2019-04-29T21:42:01.535Z,3.90
2019-04-29T21:45:17.448Z,3.53
2019-04-29T21:48:39.721Z,3.60
2019-04-29T21:51:49.822Z,3.60
2019-04-29T21:54:58.496Z,3.17
2019-04-29T21:58:21.292Z,3.43
2019-04-29T22:01:40.412Z,3.40
2019-04-29T22:04:48.967Z,4.13
2019-04-29T22:07:57.775Z,3.87
2019-04-29T22:11:07.058Z,4.00
2019-04-29T22:14:26.645Z,3.83
2019-04-29T22:17:36.007Z,3.97
2019-04-29T22:20:44.663Z,3.50
2019-04-29T22:23:55.128Z,3.70
2019-04-29T22:27:05.281Z,3.77
2019-04-29T22:30:18.188Z,4.00
2019-04-29T22:33:25.215Z,4.03
2019-04-29T22:36:36.019Z,4.27
2019-04-29T22:39:58.645Z,3.73
2019-04-29T22:43:33.592Z,3.90
2019-04-29T22:46:44.616Z,3.70
2019-04-29T22:49:52.642Z,3.90
2019-04-29T22:53:01.389Z,4.70
2019-04-29T22:56:13.951Z,3.93
2019-04-29T22:59:21.818Z,4.17
2019-04-29T23:02:30.357Z,3.63
2019-04-29T23:05:38.891Z,4.13
2019-04-29T23:08:57.909Z,4.33
2019-04-29T23:12:09.749Z,4.33
2019-04-29T23:15:22.751Z,4.03
2019-04-29T23:18:33.224Z,4.00
2019-04-29T23:21:57.290Z,4.80
2019-04-29T23:25:26.635Z,3.77
2019-04-29T23:28:35.594Z,3.90
2019-04-29T23:31:55.417Z,4.40
2019-04-29T23:35:06.270Z,3.77
2019-04-29T23:38:15.551Z,3.90
2019-04-29T23:41:27.619Z,4.40
2019-04-29T23:44:37.815Z,4.20
2019-04-29T23:47:46.894Z,4.00
2019-04-29T23:50:58.253Z,4.10
2019-04-29T23:54:07.843Z,3.90
2019-04-29T23:57:42.591Z,4.17
